sensor_id;sensor_type;location;lat;lon;timestamp;P1;durP1;ratioP1;P2;durP2;ratioP2
16900;SDS011;8567;52.540;6.434;2024-02-26T00:01:48;1.50;;;1.40;;
16900;SDS011;8567;52.540;6.434;2024-02-26T00:04:15;1.52;;;1.42;;
16900;SDS011;8567;52.540;6.434;2024-02-26T00:06:42;1.20;;;1.20;;
16900;SDS011;8567;52.540;6.434;2024-02-26T00:09:09;1.48;;;1.48;;
16900;SDS011;8567;52.540;6.434;2024-02-26T00:11:36;1.48;;;1.38;;
16900;SDS011;8567;52.540;6.434;2024-02-26T00:14:03;1.40;;;1.40;;
16900;SDS011;8567;52.540;6.434;2024-02-26T00:16:30;1.50;;;1.40;;
16900;SDS011;8567;52.540;6.434;2024-02-26T00:18:58;1.40;;;1.40;;
16900;SDS011;8567;52.540;6.434;2024-02-26T00:21:25;1.20;;;1.20;;
16900;SDS011;8567;52.540;6.434;2024-02-26T00:23:52;1.27;;;1.27;;
16900;SDS011;8567;52.540;6.434;2024-02-26T00:26:19;1.20;;;1.20;;
16900;SDS011;8567;52.540;6.434;2024-02-26T00:28:46;1.50;;;1.50;;
16900;SDS011;8567;52.540;6.434;2024-02-26T00:31:13;1.20;;;1.20;;
16900;SDS011;8567;52.540;6.434;2024-02-26T00:33:40;1.25;;;1.25;;
16900;SDS011;8567;52.540;6.434;2024-02-26T00:36:08;1.27;;;1.27;;
16900;SDS011;8567;52.540;6.434;2024-02-26T00:38:35;1.45;;;1.45;;
16900;SDS011;8567;52.540;6.434;2024-02-26T00:41:02;1.40;;;1.40;;
16900;SDS011;8567;52.540;6.434;2024-02-26T00:43:29;1.23;;;1.23;;
16900;SDS011;8567;52.540;6.434;2024-02-26T00:45:55;1.45;;;1.35;;
16900;SDS011;8567;52.540;6.434;2024-02-26T00:48:22;1.40;;;1.40;;
16900;SDS011;8567;52.540;6.434;2024-02-26T00:50:50;1.33;;;1.33;;
16900;SDS011;8567;52.540;6.434;2024-02-26T00:53:19;1.30;;;1.30;;
16900;SDS011;8567;52.540;6.434;2024-02-26T00:55:45;1.70;;;1.60;;
16900;SDS011;8567;52.540;6.434;2024-02-26T00:58:12;1.60;;;1.60;;
16900;SDS011;8567;52.540;6.434;2024-02-26T01:00:39;1.63;;;1.48;;
16900;SDS011;8567;52.540;6.434;2024-02-26T01:03:06;1.60;;;1.50;;
16900;SDS011;8567;52.540;6.434;2024-02-26T01:05:32;1.40;;;1.40;;
16900;SDS011;8567;52.540;6.434;2024-02-26T01:07:59;1.30;;;1.30;;
16900;SDS011;8567;52.540;6.434;2024-02-26T01:10:28;1.50;;;1.38;;
16900;SDS011;8567;52.540;6.434;2024-02-26T01:12:54;1.40;;;1.40;;
16900;SDS011;8567;52.540;6.434;2024-02-26T01:15:21;1.38;;;1.38;;
16900;SDS011;8567;52.540;6.434;2024-02-26T01:17:49;1.38;;;1.38;;
16900;SDS011;8567;52.540;6.434;2024-02-26T01:20:15;1.40;;;1.40;;
16900;SDS011;8567;52.540;6.434;2024-02-26T01:22:42;1.30;;;1.30;;
16900;SDS011;8567;52.540;6.434;2024-02-26T01:25:10;1.38;;;1.38;;
16900;SDS011;8567;52.540;6.434;2024-02-26T01:27:38;1.40;;;1.40;;
16900;SDS011;8567;52.540;6.434;2024-02-26T01:30:06;1.63;;;1.60;;
16900;SDS011;8567;52.540;6.434;2024-02-26T01:32:34;1.42;;;1.42;;
16900;SDS011;8567;52.540;6.434;2024-02-26T01:35:02;1.50;;;1.50;;
16900;SDS011;8567;52.540;6.434;2024-02-26T01:37:30;1.40;;;1.40;;
16900;SDS011;8567;52.540;6.434;2024-02-26T01:39:57;1.30;;;1.30;;
16900;SDS011;8567;52.540;6.434;2024-02-26T01:42:23;1.77;;;1.67;;
16900;SDS011;8567;52.540;6.434;2024-02-26T01:44:52;1.52;;;1.52;;
16900;SDS011;8567;52.540;6.434;2024-02-26T01:47:18;1.40;;;1.40;;
16900;SDS011;8567;52.540;6.434;2024-02-26T01:49:45;1.70;;;1.70;;
16900;SDS011;8567;52.540;6.434;2024-02-26T01:52:12;1.70;;;1.60;;
16900;SDS011;8567;52.540;6.434;2024-02-26T01:54:39;1.80;;;1.70;;
16900;SDS011;8567;52.540;6.434;2024-02-26T01:57:07;1.70;;;1.65;;
16900;SDS011;8567;52.540;6.434;2024-02-26T01:59:35;1.52;;;1.52;;
16900;SDS011;8567;52.540;6.434;2024-02-26T02:02:03;1.52;;;1.50;;
16900;SDS011;8567;52.540;6.434;2024-02-26T02:04:34;1.55;;;1.55;;
16900;SDS011;8567;52.540;6.434;2024-02-26T02:07:01;1.40;;;1.40;;
16900;SDS011;8567;52.540;6.434;2024-02-26T02:09:28;1.60;;;1.60;;
16900;SDS011;8567;52.540;6.434;2024-02-26T02:11:55;1.50;;;1.50;;
16900;SDS011;8567;52.540;6.434;2024-02-26T02:14:22;1.45;;;1.45;;
16900;SDS011;8567;52.540;6.434;2024-02-26T02:16:50;1.70;;;1.60;;
16900;SDS011;8567;52.540;6.434;2024-02-26T02:19:18;1.80;;;1.70;;
16900;SDS011;8567;52.540;6.434;2024-02-26T02:21:46;1.50;;;1.50;;
16900;SDS011;8567;52.540;6.434;2024-02-26T02:24:13;1.70;;;1.70;;
16900;SDS011;8567;52.540;6.434;2024-02-26T02:26:39;1.80;;;1.70;;
16900;SDS011;8567;52.540;6.434;2024-02-26T02:29:06;1.77;;;1.67;;
16900;SDS011;8567;52.540;6.434;2024-02-26T02:31:34;1.70;;;1.70;;
16900;SDS011;8567;52.540;6.434;2024-02-26T02:34:01;1.88;;;1.77;;
16900;SDS011;8567;52.540;6.434;2024-02-26T02:36:29;1.50;;;1.50;;
16900;SDS011;8567;52.540;6.434;2024-02-26T02:38:57;1.58;;;1.58;;
16900;SDS011;8567;52.540;6.434;2024-02-26T02:41:23;1.70;;;1.70;;
16900;SDS011;8567;52.540;6.434;2024-02-26T02:43:51;1.90;;;1.80;;
16900;SDS011;8567;52.540;6.434;2024-02-26T02:46:18;1.85;;;1.75;;
16900;SDS011;8567;52.540;6.434;2024-02-26T02:48:45;1.70;;;1.70;;
16900;SDS011;8567;52.540;6.434;2024-02-26T02:51:12;1.95;;;1.85;;
16900;SDS011;8567;52.540;6.434;2024-02-26T02:53:38;1.80;;;1.70;;
16900;SDS011;8567;52.540;6.434;2024-02-26T02:56:07;1.90;;;1.80;;
16900;SDS011;8567;52.540;6.434;2024-02-26T02:58:33;1.75;;;1.65;;
16900;SDS011;8567;52.540;6.434;2024-02-26T03:01:00;2.00;;;1.90;;
16900;SDS011;8567;52.540;6.434;2024-02-26T03:03:27;1.50;;;1.50;;
16900;SDS011;8567;52.540;6.434;2024-02-26T03:05:54;1.60;;;1.50;;
16900;SDS011;8567;52.540;6.434;2024-02-26T03:08:21;1.70;;;1.67;;
16900;SDS011;8567;52.540;6.434;2024-02-26T03:10:48;2.10;;;2.00;;
16900;SDS011;8567;52.540;6.434;2024-02-26T03:13:17;2.10;;;2.00;;
16900;SDS011;8567;52.540;6.434;2024-02-26T03:15:44;1.60;;;1.60;;
16900;SDS011;8567;52.540;6.434;2024-02-26T03:18:10;2.00;;;1.90;;
16900;SDS011;8567;52.540;6.434;2024-02-26T03:20:38;1.88;;;1.77;;
16900;SDS011;8567;52.540;6.434;2024-02-26T03:23:05;1.63;;;1.63;;
16900;SDS011;8567;52.540;6.434;2024-02-26T03:25:32;2.00;;;1.90;;
16900;SDS011;8567;52.540;6.434;2024-02-26T03:27:58;1.92;;;1.83;;
16900;SDS011;8567;52.540;6.434;2024-02-26T03:30:27;1.92;;;1.83;;
16900;SDS011;8567;52.540;6.434;2024-02-26T03:32:53;1.58;;;1.58;;
16900;SDS011;8567;52.540;6.434;2024-02-26T03:35:20;1.42;;;1.42;;
16900;SDS011;8567;52.540;6.434;2024-02-26T03:37:47;1.73;;;1.70;;
16900;SDS011;8567;52.540;6.434;2024-02-26T03:40:15;1.50;;;1.50;;
16900;SDS011;8567;52.540;6.434;2024-02-26T03:42:44;1.77;;;1.70;;
16900;SDS011;8567;52.540;6.434;2024-02-26T03:45:11;1.83;;;1.73;;
16900;SDS011;8567;52.540;6.434;2024-02-26T03:47:39;1.88;;;1.77;;
16900;SDS011;8567;52.540;6.434;2024-02-26T03:50:06;1.77;;;1.67;;
16900;SDS011;8567;52.540;6.434;2024-02-26T03:52:34;1.80;;;1.70;;
16900;SDS011;8567;52.540;6.434;2024-02-26T03:55:00;1.70;;;1.70;;
16900;SDS011;8567;52.540;6.434;2024-02-26T03:57:27;1.63;;;1.63;;
16900;SDS011;8567;52.540;6.434;2024-02-26T03:59:54;1.60;;;1.60;;
16900;SDS011;8567;52.540;6.434;2024-02-26T04:02:22;1.90;;;1.80;;
16900;SDS011;8567;52.540;6.434;2024-02-26T04:04:50;1.75;;;1.65;;
16900;SDS011;8567;52.540;6.434;2024-02-26T04:07:17;1.98;;;1.88;;
16900;SDS011;8567;52.540;6.434;2024-02-26T04:12:10;1.77;;;1.77;;
16900;SDS011;8567;52.540;6.434;2024-02-26T04:14:37;1.70;;;1.70;;
16900;SDS011;8567;52.540;6.434;2024-02-26T04:17:04;1.90;;;1.80;;
16900;SDS011;8567;52.540;6.434;2024-02-26T04:19:31;1.70;;;1.70;;
16900;SDS011;8567;52.540;6.434;2024-02-26T04:21:59;2.08;;;1.80;;
16900;SDS011;8567;52.540;6.434;2024-02-26T04:24:26;1.58;;;1.58;;
16900;SDS011;8567;52.540;6.434;2024-02-26T04:26:53;1.60;;;1.58;;
16900;SDS011;8567;52.540;6.434;2024-02-26T04:29:20;1.70;;;1.70;;
16900;SDS011;8567;52.540;6.434;2024-02-26T04:31:46;1.55;;;1.55;;
16900;SDS011;8567;52.540;6.434;2024-02-26T04:34:13;1.60;;;1.60;;
16900;SDS011;8567;52.540;6.434;2024-02-26T04:36:40;1.63;;;1.63;;
16900;SDS011;8567;52.540;6.434;2024-02-26T04:39:08;1.70;;;1.70;;
16900;SDS011;8567;52.540;6.434;2024-02-26T04:41:36;1.90;;;1.80;;
16900;SDS011;8567;52.540;6.434;2024-02-26T04:44:03;1.90;;;1.80;;
16900;SDS011;8567;52.540;6.434;2024-02-26T04:46:30;1.90;;;1.80;;
16900;SDS011;8567;52.540;6.434;2024-02-26T04:48:57;1.75;;;1.75;;
16900;SDS011;8567;52.540;6.434;2024-02-26T04:51:24;1.90;;;1.80;;
16900;SDS011;8567;52.540;6.434;2024-02-26T04:53:51;1.60;;;1.60;;
16900;SDS011;8567;52.540;6.434;2024-02-26T04:56:20;1.80;;;1.70;;
16900;SDS011;8567;52.540;6.434;2024-02-26T04:58:46;2.03;;;1.92;;
16900;SDS011;8567;52.540;6.434;2024-02-26T05:01:13;1.80;;;1.70;;
16900;SDS011;8567;52.540;6.434;2024-02-26T05:03:41;1.85;;;1.77;;
16900;SDS011;8567;52.540;6.434;2024-02-26T05:06:08;1.58;;;1.58;;
16900;SDS011;8567;52.540;6.434;2024-02-26T05:08:35;1.65;;;1.65;;
16900;SDS011;8567;52.540;6.434;2024-02-26T05:11:03;1.50;;;1.50;;
16900;SDS011;8567;52.540;6.434;2024-02-26T05:13:32;1.70;;;1.70;;
16900;SDS011;8567;52.540;6.434;2024-02-26T05:15:59;1.55;;;1.55;;
16900;SDS011;8567;52.540;6.434;2024-02-26T05:18:27;1.50;;;1.50;;
16900;SDS011;8567;52.540;6.434;2024-02-26T05:20:54;1.80;;;1.70;;
16900;SDS011;8567;52.540;6.434;2024-02-26T05:23:20;1.77;;;1.70;;
16900;SDS011;8567;52.540;6.434;2024-02-26T05:25:48;1.73;;;1.70;;
16900;SDS011;8567;52.540;6.434;2024-02-26T05:28:15;1.80;;;1.70;;
16900;SDS011;8567;52.540;6.434;2024-02-26T05:30:43;1.80;;;1.70;;
16900;SDS011;8567;52.540;6.434;2024-02-26T05:33:10;1.60;;;1.60;;
16900;SDS011;8567;52.540;6.434;2024-02-26T05:35:36;1.65;;;1.63;;
16900;SDS011;8567;52.540;6.434;2024-02-26T05:38:03;1.90;;;1.80;;
16900;SDS011;8567;52.540;6.434;2024-02-26T05:40:30;1.70;;;1.70;;
16900;SDS011;8567;52.540;6.434;2024-02-26T05:42:56;1.45;;;1.45;;
16900;SDS011;8567;52.540;6.434;2024-02-26T05:45:23;1.85;;;1.75;;
16900;SDS011;8567;52.540;6.434;2024-02-26T05:47:51;1.90;;;1.80;;
16900;SDS011;8567;52.540;6.434;2024-02-26T05:50:18;1.60;;;1.60;;
16900;SDS011;8567;52.540;6.434;2024-02-26T05:52:44;1.80;;;1.70;;
16900;SDS011;8567;52.540;6.434;2024-02-26T05:55:11;1.67;;;1.67;;
16900;SDS011;8567;52.540;6.434;2024-02-26T05:57:38;1.85;;;1.77;;
16900;SDS011;8567;52.540;6.434;2024-02-26T06:00:06;1.50;;;1.50;;
16900;SDS011;8567;52.540;6.434;2024-02-26T06:02:33;1.70;;;1.60;;
16900;SDS011;8567;52.540;6.434;2024-02-26T06:05:02;1.90;;;1.80;;
16900;SDS011;8567;52.540;6.434;2024-02-26T06:07:29;1.70;;;1.70;;
16900;SDS011;8567;52.540;6.434;2024-02-26T06:09:56;1.70;;;1.70;;
16900;SDS011;8567;52.540;6.434;2024-02-26T06:12:23;1.98;;;1.73;;
16900;SDS011;8567;52.540;6.434;2024-02-26T06:14:49;1.90;;;1.80;;
16900;SDS011;8567;52.540;6.434;2024-02-26T06:17:16;2.17;;;2.08;;
16900;SDS011;8567;52.540;6.434;2024-02-26T06:19:43;1.90;;;1.80;;
16900;SDS011;8567;52.540;6.434;2024-02-26T06:22:11;1.70;;;1.60;;
16900;SDS011;8567;52.540;6.434;2024-02-26T06:24:38;1.77;;;1.70;;
16900;SDS011;8567;52.540;6.434;2024-02-26T06:27:04;1.73;;;1.63;;
16900;SDS011;8567;52.540;6.434;2024-02-26T06:29:32;1.60;;;1.60;;
16900;SDS011;8567;52.540;6.434;2024-02-26T06:31:59;1.70;;;1.70;;
16900;SDS011;8567;52.540;6.434;2024-02-26T06:34:25;2.00;;;1.90;;
16900;SDS011;8567;52.540;6.434;2024-02-26T06:36:52;1.70;;;1.70;;
16900;SDS011;8567;52.540;6.434;2024-02-26T06:39:20;1.75;;;1.70;;
16900;SDS011;8567;52.540;6.434;2024-02-26T06:41:47;1.55;;;1.50;;
16900;SDS011;8567;52.540;6.434;2024-02-26T06:44:14;1.55;;;1.55;;
16900;SDS011;8567;52.540;6.434;2024-02-26T06:46:40;1.83;;;1.73;;
16900;SDS011;8567;52.540;6.434;2024-02-26T06:49:07;1.75;;;1.65;;
16900;SDS011;8567;52.540;6.434;2024-02-26T06:51:34;1.80;;;1.75;;
16900;SDS011;8567;52.540;6.434;2024-02-26T06:54:01;1.80;;;1.70;;
16900;SDS011;8567;52.540;6.434;2024-02-26T06:56:29;2.35;;;2.08;;
16900;SDS011;8567;52.540;6.434;2024-02-26T06:58:56;2.00;;;1.90;;
16900;SDS011;8567;52.540;6.434;2024-02-26T07:01:22;4.85;;;2.13;;
16900;SDS011;8567;52.540;6.434;2024-02-26T07:03:49;3.33;;;2.30;;
16900;SDS011;8567;52.540;6.434;2024-02-26T07:06:16;2.60;;;2.40;;
16900;SDS011;8567;52.540;6.434;2024-02-26T07:08:43;4.20;;;2.53;;
16900;SDS011;8567;52.540;6.434;2024-02-26T07:11:10;3.85;;;2.50;;
16900;SDS011;8567;52.540;6.434;2024-02-26T07:13:38;5.40;;;2.60;;
16900;SDS011;8567;52.540;6.434;2024-02-26T07:16:05;3.42;;;2.25;;
16900;SDS011;8567;52.540;6.434;2024-02-26T07:18:35;6.55;;;3.13;;
16900;SDS011;8567;52.540;6.434;2024-02-26T07:21:02;7.70;;;3.38;;
16900;SDS011;8567;52.540;6.434;2024-02-26T07:23:29;8.52;;;4.38;;
16900;SDS011;8567;52.540;6.434;2024-02-26T07:25:56;5.93;;;3.83;;
16900;SDS011;8567;52.540;6.434;2024-02-26T07:28:23;6.90;;;3.85;;
16900;SDS011;8567;52.540;6.434;2024-02-26T07:30:51;6.60;;;3.78;;
16900;SDS011;8567;52.540;6.434;2024-02-26T07:33:18;7.60;;;3.97;;
16900;SDS011;8567;52.540;6.434;2024-02-26T07:35:45;6.97;;;3.75;;
16900;SDS011;8567;52.540;6.434;2024-02-26T07:38:12;6.68;;;3.92;;
16900;SDS011;8567;52.540;6.434;2024-02-26T07:40:39;10.63;;;4.35;;
16900;SDS011;8567;52.540;6.434;2024-02-26T07:43:05;8.18;;;4.45;;
16900;SDS011;8567;52.540;6.434;2024-02-26T07:45:32;7.90;;;4.25;;
16900;SDS011;8567;52.540;6.434;2024-02-26T07:48:02;8.07;;;4.25;;
16900;SDS011;8567;52.540;6.434;2024-02-26T07:50:30;6.15;;;3.47;;
16900;SDS011;8567;52.540;6.434;2024-02-26T07:52:57;6.57;;;3.47;;
16900;SDS011;8567;52.540;6.434;2024-02-26T07:55:23;5.93;;;3.45;;
16900;SDS011;8567;52.540;6.434;2024-02-26T07:57:50;5.68;;;3.22;;
16900;SDS011;8567;52.540;6.434;2024-02-26T08:00:17;4.85;;;3.00;;
16900;SDS011;8567;52.540;6.434;2024-02-26T08:02:44;6.63;;;3.17;;
16900;SDS011;8567;52.540;6.434;2024-02-26T08:05:13;4.95;;;3.05;;
16900;SDS011;8567;52.540;6.434;2024-02-26T08:07:40;4.82;;;3.20;;
16900;SDS011;8567;52.540;6.434;2024-02-26T08:10:07;4.10;;;2.88;;
16900;SDS011;8567;52.540;6.434;2024-02-26T08:12:35;4.38;;;2.75;;
16900;SDS011;8567;52.540;6.434;2024-02-26T08:15:02;3.33;;;2.80;;
16900;SDS011;8567;52.540;6.434;2024-02-26T08:17:30;4.28;;;2.80;;
16900;SDS011;8567;52.540;6.434;2024-02-26T08:19:58;3.08;;;2.58;;
16900;SDS011;8567;52.540;6.434;2024-02-26T08:22:27;3.10;;;2.78;;
16900;SDS011;8567;52.540;6.434;2024-02-26T08:24:54;2.97;;;2.67;;
16900;SDS011;8567;52.540;6.434;2024-02-26T08:27:21;3.92;;;2.88;;
16900;SDS011;8567;52.540;6.434;2024-02-26T08:29:48;4.18;;;2.53;;
16900;SDS011;8567;52.540;6.434;2024-02-26T08:32:15;2.70;;;2.47;;
16900;SDS011;8567;52.540;6.434;2024-02-26T08:34:42;2.97;;;2.65;;
16900;SDS011;8567;52.540;6.434;2024-02-26T08:37:09;2.60;;;2.33;;
16900;SDS011;8567;52.540;6.434;2024-02-26T08:39:38;3.17;;;2.50;;
16900;SDS011;8567;52.540;6.434;2024-02-26T08:42:05;3.45;;;2.47;;
16900;SDS011;8567;52.540;6.434;2024-02-26T08:44:33;2.60;;;2.40;;
16900;SDS011;8567;52.540;6.434;2024-02-26T08:47:00;3.08;;;2.78;;
16900;SDS011;8567;52.540;6.434;2024-02-26T08:49:27;2.38;;;2.25;;
16900;SDS011;8567;52.540;6.434;2024-02-26T08:51:54;2.75;;;2.45;;
16900;SDS011;8567;52.540;6.434;2024-02-26T08:54:21;2.80;;;2.50;;
16900;SDS011;8567;52.540;6.434;2024-02-26T08:56:50;2.78;;;2.42;;
16900;SDS011;8567;52.540;6.434;2024-02-26T08:59:17;3.53;;;2.50;;
16900;SDS011;8567;52.540;6.434;2024-02-26T09:01:47;3.10;;;2.10;;
16900;SDS011;8567;52.540;6.434;2024-02-26T09:04:14;2.45;;;2.25;;
16900;SDS011;8567;52.540;6.434;2024-02-26T09:06:41;2.40;;;2.20;;
16900;SDS011;8567;52.540;6.434;2024-02-26T09:09:08;2.65;;;2.42;;
16900;SDS011;8567;52.540;6.434;2024-02-26T09:11:36;2.80;;;2.20;;
16900;SDS011;8567;52.540;6.434;2024-02-26T09:14:04;2.65;;;2.45;;
16900;SDS011;8567;52.540;6.434;2024-02-26T09:16:31;4.43;;;2.33;;
16900;SDS011;8567;52.540;6.434;2024-02-26T09:18:59;2.78;;;2.20;;
16900;SDS011;8567;52.540;6.434;2024-02-26T09:21:26;5.88;;;5.47;;
16900;SDS011;8567;52.540;6.434;2024-02-26T09:23:53;2.70;;;2.50;;
16900;SDS011;8567;52.540;6.434;2024-02-26T09:26:20;3.20;;;2.30;;
16900;SDS011;8567;52.540;6.434;2024-02-26T09:28:47;2.88;;;2.30;;
16900;SDS011;8567;52.540;6.434;2024-02-26T09:31:17;2.47;;;2.28;;
16900;SDS011;8567;52.540;6.434;2024-02-26T09:33:44;2.60;;;2.40;;
16900;SDS011;8567;52.540;6.434;2024-02-26T09:36:11;3.53;;;2.33;;
16900;SDS011;8567;52.540;6.434;2024-02-26T09:38:39;2.45;;;2.08;;
16900;SDS011;8567;52.540;6.434;2024-02-26T09:41:06;2.60;;;2.40;;
16900;SDS011;8567;52.540;6.434;2024-02-26T09:43:34;2.30;;;2.10;;
16900;SDS011;8567;52.540;6.434;2024-02-26T09:46:01;2.60;;;2.35;;
16900;SDS011;8567;52.540;6.434;2024-02-26T09:48:30;2.40;;;2.00;;
16900;SDS011;8567;52.540;6.434;2024-02-26T09:50:58;2.10;;;2.00;;
16900;SDS011;8567;52.540;6.434;2024-02-26T09:53:26;2.42;;;2.08;;
16900;SDS011;8567;52.540;6.434;2024-02-26T09:55:56;2.35;;;2.15;;
16900;SDS011;8567;52.540;6.434;2024-02-26T09:58:24;2.20;;;2.10;;
16900;SDS011;8567;52.540;6.434;2024-02-26T10:00:53;2.28;;;2.17;;
16900;SDS011;8567;52.540;6.434;2024-02-26T10:03:24;2.33;;;2.20;;
16900;SDS011;8567;52.540;6.434;2024-02-26T10:05:54;2.33;;;2.13;;
16900;SDS011;8567;52.540;6.434;2024-02-26T10:08:22;2.35;;;2.15;;
16900;SDS011;8567;52.540;6.434;2024-02-26T10:10:49;2.00;;;1.90;;
16900;SDS011;8567;52.540;6.434;2024-02-26T10:13:17;2.00;;;1.90;;
16900;SDS011;8567;52.540;6.434;2024-02-26T10:15:45;2.42;;;2.25;;
16900;SDS011;8567;52.540;6.434;2024-02-26T10:18:12;2.30;;;2.08;;
16900;SDS011;8567;52.540;6.434;2024-02-26T10:20:39;2.28;;;2.17;;
16900;SDS011;8567;52.540;6.434;2024-02-26T10:23:08;1.95;;;1.85;;
16900;SDS011;8567;52.540;6.434;2024-02-26T10:25:35;2.55;;;2.30;;
16900;SDS011;8567;52.540;6.434;2024-02-26T10:28:03;2.60;;;2.40;;
16900;SDS011;8567;52.540;6.434;2024-02-26T10:30:30;2.30;;;2.20;;
16900;SDS011;8567;52.540;6.434;2024-02-26T10:32:57;2.20;;;2.10;;
16900;SDS011;8567;52.540;6.434;2024-02-26T10:35:24;2.40;;;2.28;;
16900;SDS011;8567;52.540;6.434;2024-02-26T10:37:53;2.42;;;2.22;;
16900;SDS011;8567;52.540;6.434;2024-02-26T10:40:22;2.53;;;2.40;;
16900;SDS011;8567;52.540;6.434;2024-02-26T10:42:49;2.13;;;2.00;;
16900;SDS011;8567;52.540;6.434;2024-02-26T10:45:17;2.92;;;2.30;;
16900;SDS011;8567;52.540;6.434;2024-02-26T10:47:44;2.63;;;2.42;;
16900;SDS011;8567;52.540;6.434;2024-02-26T10:50:12;2.22;;;2.13;;
16900;SDS011;8567;52.540;6.434;2024-02-26T10:52:40;2.78;;;2.58;;
16900;SDS011;8567;52.540;6.434;2024-02-26T10:55:08;2.60;;;2.40;;
16900;SDS011;8567;52.540;6.434;2024-02-26T10:57:41;2.20;;;2.10;;
16900;SDS011;8567;52.540;6.434;2024-02-26T11:00:10;2.35;;;2.22;;
16900;SDS011;8567;52.540;6.434;2024-02-26T11:02:38;2.20;;;2.10;;
16900;SDS011;8567;52.540;6.434;2024-02-26T11:05:05;2.40;;;2.30;;
16900;SDS011;8567;52.540;6.434;2024-02-26T11:07:33;2.40;;;2.30;;
16900;SDS011;8567;52.540;6.434;2024-02-26T11:10:02;2.30;;;2.20;;
16900;SDS011;8567;52.540;6.434;2024-02-26T11:12:30;2.17;;;2.08;;
16900;SDS011;8567;52.540;6.434;2024-02-26T11:14:59;2.25;;;2.15;;
16900;SDS011;8567;52.540;6.434;2024-02-26T11:17:27;2.40;;;2.30;;
16900;SDS011;8567;52.540;6.434;2024-02-26T11:19:56;2.10;;;2.00;;
16900;SDS011;8567;52.540;6.434;2024-02-26T11:22:23;2.28;;;2.10;;
16900;SDS011;8567;52.540;6.434;2024-02-26T11:24:51;2.10;;;2.00;;
16900;SDS011;8567;52.540;6.434;2024-02-26T11:27:19;1.95;;;1.85;;
16900;SDS011;8567;52.540;6.434;2024-02-26T11:29:49;2.40;;;2.20;;
16900;SDS011;8567;52.540;6.434;2024-02-26T11:32:19;2.17;;;2.08;;
16900;SDS011;8567;52.540;6.434;2024-02-26T11:34:46;2.28;;;2.10;;
16900;SDS011;8567;52.540;6.434;2024-02-26T11:37:15;2.30;;;2.10;;
16900;SDS011;8567;52.540;6.434;2024-02-26T11:39:43;2.00;;;1.90;;
16900;SDS011;8567;52.540;6.434;2024-02-26T11:42:13;2.03;;;1.90;;
16900;SDS011;8567;52.540;6.434;2024-02-26T11:44:40;1.90;;;1.80;;
16900;SDS011;8567;52.540;6.434;2024-02-26T11:47:11;1.85;;;1.75;;
16900;SDS011;8567;52.540;6.434;2024-02-26T11:49:39;1.90;;;1.80;;
16900;SDS011;8567;52.540;6.434;2024-02-26T11:52:07;1.60;;;1.55;;
16900;SDS011;8567;52.540;6.434;2024-02-26T11:54:44;1.92;;;1.83;;
16900;SDS011;8567;52.540;6.434;2024-02-26T11:57:21;2.05;;;1.90;;
16900;SDS011;8567;52.540;6.434;2024-02-26T11:59:48;2.10;;;2.00;;
16900;SDS011;8567;52.540;6.434;2024-02-26T12:04:59;2.30;;;2.20;;
16900;SDS011;8567;52.540;6.434;2024-02-26T12:07:26;2.00;;;1.90;;
16900;SDS011;8567;52.540;6.434;2024-02-26T12:09:56;2.00;;;1.90;;
16900;SDS011;8567;52.540;6.434;2024-02-26T12:12:41;1.98;;;1.88;;
16900;SDS011;8567;52.540;6.434;2024-02-26T12:15:08;2.28;;;2.08;;
16900;SDS011;8567;52.540;6.434;2024-02-26T12:17:37;2.25;;;2.13;;
16900;SDS011;8567;52.540;6.434;2024-02-26T12:20:09;2.20;;;2.10;;
16900;SDS011;8567;52.540;6.434;2024-02-26T12:22:37;2.40;;;2.20;;
16900;SDS011;8567;52.540;6.434;2024-02-26T12:25:05;2.28;;;2.08;;
16900;SDS011;8567;52.540;6.434;2024-02-26T12:27:32;2.00;;;1.90;;
16900;SDS011;8567;52.540;6.434;2024-02-26T12:30:00;2.28;;;2.08;;
16900;SDS011;8567;52.540;6.434;2024-02-26T12:32:28;1.92;;;1.83;;
16900;SDS011;8567;52.540;6.434;2024-02-26T12:34:55;2.10;;;2.00;;
16900;SDS011;8567;52.540;6.434;2024-02-26T12:37:24;2.00;;;1.90;;
16900;SDS011;8567;52.540;6.434;2024-02-26T12:39:51;2.10;;;2.00;;
16900;SDS011;8567;52.540;6.434;2024-02-26T12:42:19;2.28;;;2.15;;
16900;SDS011;8567;52.540;6.434;2024-02-26T12:44:46;2.20;;;2.10;;
16900;SDS011;8567;52.540;6.434;2024-02-26T12:47:13;2.05;;;1.95;;
16900;SDS011;8567;52.540;6.434;2024-02-26T12:49:42;2.17;;;2.08;;
16900;SDS011;8567;52.540;6.434;2024-02-26T12:52:09;2.25;;;2.08;;
16900;SDS011;8567;52.540;6.434;2024-02-26T12:54:38;2.45;;;2.25;;
16900;SDS011;8567;52.540;6.434;2024-02-26T12:57:07;2.05;;;1.95;;
16900;SDS011;8567;52.540;6.434;2024-02-26T12:59:35;1.90;;;1.80;;
16900;SDS011;8567;52.540;6.434;2024-02-26T13:02:03;2.00;;;1.90;;
16900;SDS011;8567;52.540;6.434;2024-02-26T13:04:31;2.30;;;2.10;;
16900;SDS011;8567;52.540;6.434;2024-02-26T13:06:58;2.00;;;1.90;;
16900;SDS011;8567;52.540;6.434;2024-02-26T13:09:28;2.22;;;2.10;;
16900;SDS011;8567;52.540;6.434;2024-02-26T13:11:56;2.10;;;2.00;;
16900;SDS011;8567;52.540;6.434;2024-02-26T13:14:24;2.15;;;2.05;;
16900;SDS011;8567;52.540;6.434;2024-02-26T13:16:55;2.17;;;2.08;;
16900;SDS011;8567;52.540;6.434;2024-02-26T13:19:22;2.38;;;2.17;;
16900;SDS011;8567;52.540;6.434;2024-02-26T13:21:49;2.10;;;2.00;;
16900;SDS011;8567;52.540;6.434;2024-02-26T13:24:16;2.00;;;1.90;;
16900;SDS011;8567;52.540;6.434;2024-02-26T13:26:45;2.22;;;2.03;;
16900;SDS011;8567;52.540;6.434;2024-02-26T13:29:18;2.10;;;2.00;;
16900;SDS011;8567;52.540;6.434;2024-02-26T13:31:45;2.42;;;2.22;;
16900;SDS011;8567;52.540;6.434;2024-02-26T13:34:22;2.10;;;2.00;;
16900;SDS011;8567;52.540;6.434;2024-02-26T13:36:50;2.00;;;1.90;;
16900;SDS011;8567;52.540;6.434;2024-02-26T13:39:21;2.17;;;2.08;;
16900;SDS011;8567;52.540;6.434;2024-02-26T13:41:48;1.90;;;1.80;;
16900;SDS011;8567;52.540;6.434;2024-02-26T13:44:16;2.35;;;2.20;;
16900;SDS011;8567;52.540;6.434;2024-02-26T13:46:44;2.00;;;1.90;;
16900;SDS011;8567;52.540;6.434;2024-02-26T13:49:11;1.92;;;1.83;;
16900;SDS011;8567;52.540;6.434;2024-02-26T13:51:39;2.30;;;2.20;;
16900;SDS011;8567;52.540;6.434;2024-02-26T13:54:06;2.00;;;1.90;;
16900;SDS011;8567;52.540;6.434;2024-02-26T13:56:34;1.90;;;1.80;;
16900;SDS011;8567;52.540;6.434;2024-02-26T13:59:02;2.08;;;1.98;;
16900;SDS011;8567;52.540;6.434;2024-02-26T14:01:29;1.80;;;1.70;;
16900;SDS011;8567;52.540;6.434;2024-02-26T14:03:59;2.33;;;2.13;;
16900;SDS011;8567;52.540;6.434;2024-02-26T14:06:28;2.00;;;1.90;;
16900;SDS011;8567;52.540;6.434;2024-02-26T14:08:57;1.83;;;1.73;;
16900;SDS011;8567;52.540;6.434;2024-02-26T14:11:24;1.90;;;1.80;;
16900;SDS011;8567;52.540;6.434;2024-02-26T14:13:54;2.13;;;2.03;;
16900;SDS011;8567;52.540;6.434;2024-02-26T14:16:21;2.00;;;1.90;;
16900;SDS011;8567;52.540;6.434;2024-02-26T14:18:48;1.80;;;1.70;;
16900;SDS011;8567;52.540;6.434;2024-02-26T14:21:16;2.00;;;1.90;;
16900;SDS011;8567;52.540;6.434;2024-02-26T14:23:43;1.77;;;1.67;;
16900;SDS011;8567;52.540;6.434;2024-02-26T14:26:10;1.88;;;1.77;;
16900;SDS011;8567;52.540;6.434;2024-02-26T14:28:38;1.83;;;1.73;;
16900;SDS011;8567;52.540;6.434;2024-02-26T14:31:05;1.70;;;1.60;;
16900;SDS011;8567;52.540;6.434;2024-02-26T14:33:37;2.00;;;1.90;;
16900;SDS011;8567;52.540;6.434;2024-02-26T14:36:05;1.70;;;1.60;;
16900;SDS011;8567;52.540;6.434;2024-02-26T14:38:34;1.88;;;1.77;;
16900;SDS011;8567;52.540;6.434;2024-02-26T14:41:01;2.00;;;1.90;;
16900;SDS011;8567;52.540;6.434;2024-02-26T14:43:28;1.90;;;1.80;;
16900;SDS011;8567;52.540;6.434;2024-02-26T14:45:57;1.88;;;1.77;;
16900;SDS011;8567;52.540;6.434;2024-02-26T14:48:24;1.73;;;1.63;;
16900;SDS011;8567;52.540;6.434;2024-02-26T14:50:50;2.00;;;1.90;;
16900;SDS011;8567;52.540;6.434;2024-02-26T14:53:17;1.80;;;1.70;;
16900;SDS011;8567;52.540;6.434;2024-02-26T14:55:46;1.95;;;1.85;;
16900;SDS011;8567;52.540;6.434;2024-02-26T14:58:13;1.98;;;1.88;;
16900;SDS011;8567;52.540;6.434;2024-02-26T15:00:40;1.80;;;1.70;;
16900;SDS011;8567;52.540;6.434;2024-02-26T15:03:07;1.95;;;1.80;;
16900;SDS011;8567;52.540;6.434;2024-02-26T15:05:35;1.70;;;1.60;;
16900;SDS011;8567;52.540;6.434;2024-02-26T15:08:02;1.80;;;1.70;;